createdAt,value
2019-05-03T00:01:34.859Z,71.80
2019-05-03T00:04:05.002Z,71.90
2019-05-03T00:06:35.109Z,72.90
2019-05-03T00:09:08.014Z,73.40
2019-05-03T00:11:38.358Z,74.10
2019-05-03T00:14:08.459Z,74.80
2019-05-03T00:16:41.661Z,75.10
2019-05-03T00:19:12.737Z,75.40
2019-05-03T00:21:42.950Z,75.40
2019-05-03T00:24:12.999Z,75.20
2019-05-03T00:26:43.088Z,75.40
2019-05-03T00:29:13.136Z,75.20
2019-05-03T00:31:43.192Z,75.20
2019-05-03T00:34:16.657Z,75.10
2019-05-03T00:36:54.007Z,74.90
2019-05-03T00:39:32.499Z,75.30
2019-05-03T00:42:02.864Z,75.10
2019-05-03T00:44:32.965Z,75.20
2019-05-03T00:47:03.079Z,75.50
2019-05-03T00:49:33.091Z,75.90
2019-05-03T00:52:03.142Z,76.10
2019-05-03T00:54:33.164Z,76.20
2019-05-03T00:57:04.558Z,76.60
2019-05-03T00:59:34.591Z,76.90
2019-05-03T01:02:04.782Z,77.10
2019-05-03T01:04:34.874Z,77.40
2019-05-03T01:07:04.902Z,77.70
2019-05-03T01:09:35.399Z,78.10
2019-05-03T01:12:06.485Z,78.10
2019-05-03T01:14:38.559Z,78.30
2019-05-03T01:17:08.595Z,78.40
2019-05-03T01:19:38.609Z,78.40
2019-05-03T01:22:09.011Z,78.50
2019-05-03T01:24:39.112Z,78.50
2019-05-03T01:27:09.147Z,78.50
2019-05-03T01:29:39.150Z,78.60
2019-05-03T01:32:09.190Z,78.60
2019-05-03T01:34:39.251Z,78.50
2019-05-03T01:37:09.336Z,78.20
2019-05-03T01:39:39.479Z,77.90
2019-05-03T01:42:12.019Z,77.50
2019-05-03T01:44:42.721Z,77.30
2019-05-03T01:49:55.751Z,77.10
2019-05-03T01:52:29.900Z,76.80
2019-05-03T01:54:59.945Z,76.60
2019-05-03T01:57:30.035Z,76.60
2019-05-03T02:00:00.182Z,76.60
2019-05-03T02:02:36.658Z,76.70
2019-05-03T02:05:38.586Z,75.40
2019-05-03T02:08:09.776Z,74.90
2019-05-03T02:10:39.980Z,73.40
2019-05-03T02:13:12.285Z,73.00
2019-05-03T02:15:42.615Z,72.10
2019-05-03T02:18:14.947Z,71.40
2019-05-03T02:20:44.375Z,69.50
2019-05-03T02:23:14.510Z,68.30
2019-05-03T02:25:55.610Z,68.20
2019-05-03T02:28:16.259Z,67.90
2019-05-03T02:30:46.315Z,68.10
2019-05-03T02:33:16.424Z,68.10
2019-05-03T02:35:46.456Z,67.10
2019-05-03T02:38:17.841Z,66.50
2019-05-03T02:40:47.895Z,66.50
2019-05-03T02:43:31.862Z,66.70
2019-05-03T02:46:29.847Z,66.50
2019-05-03T02:49:27.983Z,66.60
2019-05-03T02:51:58.125Z,66.80
2019-05-03T02:54:28.203Z,67.30
2019-05-03T02:56:58.223Z,67.90
2019-05-03T02:59:29.393Z,67.80
2019-05-03T03:01:59.664Z,68.10
2019-05-03T03:04:30.343Z,68.60
2019-05-03T03:07:01.067Z,68.90
2019-05-03T03:09:31.504Z,69.20
2019-05-03T03:12:06.189Z,69.70
2019-05-03T03:14:36.724Z,70.40
2019-05-03T03:17:08.646Z,70.60
2019-05-03T03:19:41.963Z,71.10
2019-05-03T03:22:15.891Z,71.40
2019-05-03T03:24:49.171Z,71.80
2019-05-03T03:27:22.296Z,71.80
2019-05-03T03:29:59.115Z,72.10
2019-05-03T03:32:38.285Z,72.60
2019-05-03T03:35:20.450Z,73.30
2019-05-03T03:37:46.721Z,73.40
2019-05-03T03:40:18.026Z,73.40
2019-05-03T03:42:50.838Z,74.00
2019-05-03T03:45:21.906Z,74.60
2019-05-03T03:47:56.484Z,75.00
2019-05-03T03:50:28.100Z,75.10
2019-05-03T03:53:00.716Z,75.30
2019-05-03T03:55:35.414Z,76.20
2019-05-03T03:58:06.500Z,75.60
2019-05-03T04:00:36.793Z,76.30
2019-05-03T04:03:06.801Z,76.50
2019-05-03T04:05:36.907Z,77.00
2019-05-03T04:08:06.936Z,77.20
2019-05-03T04:10:37.011Z,77.00
2019-05-03T04:13:09.063Z,76.70
2019-05-03T04:16:01.343Z,77.00
2019-05-03T04:18:57.299Z,76.60
2019-05-03T04:21:27.958Z,76.00
2019-05-03T04:23:58.062Z,76.00
2019-05-03T04:26:29.933Z,76.50
2019-05-03T04:29:00.346Z,76.90
2019-05-03T04:31:30.450Z,77.10
2019-05-03T04:34:00.454Z,77.50
2019-05-03T04:36:30.485Z,77.70
2019-05-03T04:39:00.488Z,78.00
2019-05-03T04:41:30.723Z,78.10
2019-05-03T04:44:00.755Z,78.20
2019-05-03T04:46:30.808Z,78.30
2019-05-03T04:49:00.811Z,78.40
2019-05-03T04:51:30.909Z,78.20
2019-05-03T04:54:18.587Z,78.10
2019-05-03T04:56:48.660Z,77.70
2019-05-03T04:59:18.674Z,77.30
2019-05-03T05:01:50.624Z,76.40
2019-05-03T05:04:20.695Z,76.10
2019-05-03T05:06:50.886Z,75.20
2019-05-03T05:09:20.899Z,74.50
2019-05-03T05:11:51.020Z,74.10
2019-05-03T05:14:21.151Z,73.60
2019-05-03T05:16:51.216Z,73.20
2019-05-03T05:19:27.083Z,73.00
2019-05-03T05:22:03.257Z,72.90
2019-05-03T05:24:34.634Z,72.20
2019-05-03T05:27:26.907Z,72.10
2019-05-03T05:29:57.836Z,71.80
2019-05-03T05:32:27.966Z,71.40
2019-05-03T05:34:58.015Z,71.20
2019-05-03T05:37:28.153Z,71.60
2019-05-03T05:39:58.274Z,71.70
2019-05-03T05:42:28.600Z,71.10
2019-05-03T05:44:58.627Z,70.90
2019-05-03T05:47:44.844Z,71.60
2019-05-03T05:50:22.896Z,72.60
2019-05-03T05:52:55.202Z,73.20
2019-05-03T05:55:44.799Z,72.90
2019-05-03T05:58:39.743Z,72.50
2019-05-03T06:01:40.832Z,72.40
2019-05-03T06:04:10.960Z,72.00
2019-05-03T06:06:52.306Z,72.20
2019-05-03T06:09:34.460Z,72.00
2019-05-03T06:12:22.211Z,71.50
2019-05-03T06:14:56.351Z,70.90
2019-05-03T06:17:31.259Z,70.70
2019-05-03T06:20:12.865Z,70.40
2019-05-03T06:22:55.694Z,69.50
2019-05-03T06:25:35.356Z,67.40
2019-05-03T06:28:18.385Z,66.10
2019-05-03T06:31:21.147Z,66.10
2019-05-03T06:33:52.483Z,65.70
2019-05-03T06:36:24.369Z,64.10
2019-05-03T06:38:54.819Z,62.80
2019-05-03T06:41:25.179Z,62.40
2019-05-03T06:43:55.357Z,62.80
2019-05-03T06:46:45.513Z,63.30
2019-05-03T06:49:15.677Z,64.20
2019-05-03T06:51:49.760Z,65.00
2019-05-03T06:54:20.516Z,64.70
2019-05-03T06:56:49.271Z,63.90
2019-05-03T06:59:28.063Z,62.70
2019-05-03T07:02:28.571Z,62.40
2019-05-03T07:04:58.787Z,62.40
2019-05-03T07:07:47.847Z,61.60
2019-05-03T07:10:24.933Z,62.00
2019-05-03T07:12:57.884Z,62.70
2019-05-03T07:15:28.527Z,63.10
2019-05-03T07:17:59.073Z,62.00
2019-05-03T07:20:30.776Z,61.10
2019-05-03T07:23:00.784Z,59.90
2019-05-03T07:25:30.798Z,59.90
2019-05-03T07:28:00.834Z,59.70
2019-05-03T07:30:31.039Z,59.70
2019-05-03T07:33:05.003Z,60.60
2019-05-03T07:35:35.387Z,60.40
2019-05-03T07:38:05.553Z,59.70
2019-05-03T07:40:35.727Z,59.60
2019-05-03T07:43:05.750Z,59.80
2019-05-03T07:45:35.881Z,59.80
2019-05-03T07:48:06.408Z,59.80
2019-05-03T07:50:36.639Z,60.20
2019-05-03T07:53:06.689Z,60.00
2019-05-03T07:55:54.830Z,60.40
2019-05-03T07:58:26.348Z,61.80
2019-05-03T08:01:06.123Z,61.50
2019-05-03T08:03:30.306Z,61.70
2019-05-03T08:06:00.416Z,62.40
2019-05-03T08:08:30.506Z,64.20
2019-05-03T08:11:00.983Z,65.30
2019-05-03T08:13:31.216Z,65.90
2019-05-03T08:16:01.508Z,66.00
2019-05-03T08:18:31.559Z,66.50
2019-05-03T08:21:01.606Z,63.40
2019-05-03T08:23:31.742Z,60.60
2019-05-03T08:26:01.984Z,55.90
2019-05-03T08:28:32.098Z,49.70
2019-05-03T08:31:32.175Z,44.00
2019-05-03T08:34:19.889Z,39.20
2019-05-03T08:37:02.175Z,35.30
2019-05-03T08:39:32.269Z,35.30
2019-05-03T08:42:05.960Z,34.10
2019-05-03T08:44:36.334Z,32.60
2019-05-03T08:47:06.447Z,32.50
2019-05-03T08:49:36.607Z,33.50
2019-05-03T08:52:06.722Z,33.30
2019-05-03T08:54:36.831Z,32.90
2019-05-03T08:57:07.026Z,35.40
2019-05-03T08:59:37.097Z,39.10
2019-05-03T09:02:13.906Z,42.00
2019-05-03T09:04:42.887Z,45.40
2019-05-03T09:07:10.956Z,47.20
2019-05-03T09:10:06.239Z,48.90
2019-05-03T09:12:55.528Z,49.90
2019-05-03T09:15:26.795Z,50.60
2019-05-03T09:17:57.178Z,49.90
2019-05-03T09:20:27.454Z,48.50
2019-05-03T09:22:57.626Z,48.40
2019-05-03T09:25:27.745Z,47.40
2019-05-03T09:27:57.820Z,46.90
2019-05-03T09:30:28.056Z,45.30
2019-05-03T09:32:59.027Z,42.20
2019-05-03T09:35:33.080Z,42.10
2019-05-03T09:38:01.029Z,42.30
2019-05-03T09:40:31.267Z,42.60
2019-05-03T09:43:01.345Z,42.40
2019-05-03T09:45:31.541Z,42.80
2019-05-03T09:48:01.874Z,43.50
2019-05-03T09:50:31.973Z,43.10
2019-05-03T09:53:02.035Z,41.00
2019-05-03T09:55:36.364Z,39.30
2019-05-03T09:58:07.542Z,39.80
2019-05-03T10:00:38.127Z,40.70
2019-05-03T10:03:08.188Z,41.30
2019-05-03T10:05:38.249Z,40.20
2019-05-03T10:08:08.286Z,39.50
2019-05-03T10:10:57.366Z,37.40
2019-05-03T10:13:27.621Z,35.40
2019-05-03T10:15:57.828Z,35.40
2019-05-03T10:18:27.892Z,36.40
2019-05-03T10:20:58.006Z,37.80
2019-05-03T10:23:47.117Z,39.70
2019-05-03T10:26:17.194Z,41.30
2019-05-03T10:28:47.305Z,42.40
2019-05-03T10:31:17.404Z,44.00
2019-05-03T10:34:00.909Z,45.50
2019-05-03T10:36:30.995Z,45.80
2019-05-03T10:39:01.092Z,43.70
2019-05-03T10:41:34.792Z,42.50
2019-05-03T10:44:06.011Z,43.60
2019-05-03T10:46:36.194Z,43.60
2019-05-03T10:49:08.131Z,44.10
2019-05-03T10:51:45.090Z,45.20
2019-05-03T10:54:14.785Z,46.10
2019-05-03T10:57:02.365Z,46.60
2019-05-03T10:59:32.415Z,46.40
2019-05-03T11:02:11.475Z,45.70
2019-05-03T11:04:43.691Z,45.20
2019-05-03T11:07:14.891Z,44.60
2019-05-03T11:09:49.729Z,44.10
2019-05-03T11:12:17.746Z,43.80
2019-05-03T11:14:47.790Z,44.70
2019-05-03T11:17:18.008Z,45.30
2019-05-03T11:19:48.496Z,45.40
2019-05-03T11:22:18.975Z,45.10
2019-05-03T11:24:49.010Z,44.40
2019-05-03T11:27:24.814Z,43.20
2019-05-03T11:29:55.588Z,42.60
2019-05-03T11:32:55.631Z,41.30
2019-05-03T11:35:50.103Z,40.90
2019-05-03T11:38:31.295Z,41.00
2019-05-03T11:41:01.443Z,41.10
2019-05-03T11:43:31.648Z,41.30
2019-05-03T11:46:01.780Z,40.40
2019-05-03T11:48:31.900Z,40.50
2019-05-03T11:51:02.081Z,40.40
2019-05-03T11:53:32.124Z,41.00
2019-05-03T11:56:02.183Z,41.50
2019-05-03T11:58:34.251Z,41.30
2019-05-03T12:01:17.039Z,41.20
2019-05-03T12:03:49.051Z,40.50
2019-05-03T12:06:19.219Z,40.10
2019-05-03T12:08:49.249Z,39.50
2019-05-03T12:11:19.428Z,40.10
2019-05-03T12:14:01.671Z,40.60
2019-05-03T12:16:48.456Z,40.60
2019-05-03T12:18:55.183Z,39.80
2019-05-03T12:21:27.446Z,38.60
2019-05-03T12:23:58.658Z,39.10
2019-05-03T12:26:40.757Z,39.10
2019-05-03T12:29:00.819Z,39.10
2019-05-03T12:31:37.960Z,39.30
2019-05-03T12:34:02.786Z,38.90
2019-05-03T12:36:36.728Z,39.60
2019-05-03T12:39:05.682Z,40.30
2019-05-03T12:41:36.082Z,41.30
2019-05-03T12:44:06.197Z,41.90
2019-05-03T12:46:36.494Z,42.20
2019-05-03T12:49:06.518Z,42.50
2019-05-03T12:51:36.597Z,42.00
2019-05-03T12:54:07.887Z,41.20
2019-05-03T12:56:37.942Z,40.30
2019-05-03T12:59:18.695Z,39.00
2019-05-03T13:02:20.012Z,38.40
2019-05-03T13:04:52.059Z,38.30
2019-05-03T13:07:27.691Z,38.50
2019-05-03T13:09:57.700Z,38.80
2019-05-03T13:12:29.499Z,39.60
2019-05-03T13:15:00.570Z,39.70
2019-05-03T13:17:37.090Z,39.70
2019-05-03T13:20:11.610Z,39.50
2019-05-03T13:22:41.639Z,38.50
2019-05-03T13:25:12.128Z,38.50
2019-05-03T13:27:42.247Z,37.80
2019-05-03T13:30:12.743Z,37.10
2019-05-03T13:32:42.771Z,36.90
2019-05-03T13:35:15.076Z,36.70
2019-05-03T13:37:46.631Z,36.00
2019-05-03T13:40:16.739Z,35.80
2019-05-03T13:42:56.199Z,36.50
2019-05-03T13:45:18.630Z,37.10
2019-05-03T13:47:48.704Z,38.20
2019-05-03T13:50:20.279Z,38.70
2019-05-03T13:52:50.683Z,38.40
2019-05-03T13:55:20.743Z,38.40
2019-05-03T13:57:50.886Z,38.30
2019-05-03T14:00:21.120Z,38.50
2019-05-03T14:02:52.361Z,37.50
2019-05-03T14:05:24.450Z,36.80
2019-05-03T14:07:56.189Z,35.40
2019-05-03T14:10:25.837Z,35.30
2019-05-03T14:12:55.876Z,35.90
2019-05-03T14:15:25.884Z,36.00
2019-05-03T14:17:55.999Z,35.90
2019-05-03T14:20:45.232Z,36.20
2019-05-03T14:23:15.500Z,35.70
2019-05-03T14:25:45.598Z,35.20
2019-05-03T14:28:15.663Z,34.50
2019-05-03T14:30:45.923Z,34.10
2019-05-03T14:33:15.951Z,34.60
2019-05-03T14:35:45.977Z,34.60
2019-05-03T14:38:16.010Z,35.10
2019-05-03T14:40:47.369Z,35.50
2019-05-03T14:43:17.632Z,35.70
2019-05-03T14:45:47.642Z,36.70
2019-05-03T14:48:18.807Z,37.60
2019-05-03T14:50:48.855Z,38.10
2019-05-03T14:53:18.899Z,38.30
2019-05-03T14:55:53.830Z,37.80
2019-05-03T14:58:41.483Z,37.10
2019-05-03T15:01:24.717Z,36.60
2019-05-03T15:03:54.976Z,37.00
2019-05-03T15:06:28.181Z,36.30
2019-05-03T15:08:59.321Z,35.50
2019-05-03T15:11:29.400Z,36.00
2019-05-03T15:13:59.535Z,35.90
2019-05-03T15:16:29.651Z,35.50
2019-05-03T15:18:59.659Z,35.10
2019-05-03T15:21:29.691Z,35.00
2019-05-03T15:23:59.759Z,35.20
2019-05-03T15:26:29.791Z,35.40
2019-05-03T15:28:59.823Z,35.40
2019-05-03T15:31:29.847Z,35.90
2019-05-03T15:33:59.863Z,36.40
2019-05-03T15:36:29.920Z,35.90
2019-05-03T15:39:00.003Z,35.50
2019-05-03T15:41:31.771Z,35.30
2019-05-03T15:44:18.792Z,34.90
2019-05-03T15:46:56.710Z,34.60
2019-05-03T15:49:27.698Z,34.60
2019-05-03T15:51:58.014Z,34.80
2019-05-03T15:54:28.139Z,35.00
2019-05-03T15:56:58.230Z,35.50
2019-05-03T15:59:28.227Z,36.20
2019-05-03T16:01:58.422Z,36.70
2019-05-03T16:04:28.431Z,36.70
2019-05-03T16:06:58.575Z,36.20
2019-05-03T16:09:28.651Z,36.20
2019-05-03T16:11:58.747Z,36.50
2019-05-03T16:14:29.111Z,36.60
2019-05-03T16:16:59.214Z,37.00
2019-05-03T16:19:29.222Z,37.40
2019-05-03T16:21:59.311Z,37.90
2019-05-03T16:24:29.431Z,37.90
2019-05-03T16:27:24.859Z,38.20
2019-05-03T16:29:55.511Z,37.10
2019-05-03T16:32:26.647Z,37.30
2019-05-03T16:34:57.561Z,37.50
2019-05-03T16:37:28.426Z,37.80
2019-05-03T16:39:58.514Z,38.40
2019-05-03T16:42:28.561Z,38.90
2019-05-03T16:44:58.938Z,38.90
2019-05-03T16:47:29.417Z,39.20
2019-05-03T16:49:59.636Z,39.50
2019-05-03T16:52:30.755Z,39.90
2019-05-03T16:55:00.851Z,40.00
2019-05-03T16:57:31.582Z,39.90
2019-05-03T17:00:01.824Z,39.80
2019-05-03T17:02:32.479Z,38.90
2019-05-03T17:05:10.016Z,38.50
2019-05-03T17:08:11.066Z,38.10
2019-05-03T17:10:45.427Z,38.50
2019-05-03T17:13:15.697Z,38.90
2019-05-03T17:15:45.738Z,39.10
2019-05-03T17:18:17.282Z,39.00
2019-05-03T17:20:47.486Z,38.60
2019-05-03T17:23:17.568Z,38.60
2019-05-03T17:25:47.574Z,38.70
2019-05-03T17:28:17.619Z,39.10
2019-05-03T17:30:47.730Z,39.30
2019-05-03T17:33:17.748Z,40.50
2019-05-03T17:35:47.823Z,40.00
2019-05-03T17:38:17.900Z,40.30
2019-05-03T17:40:59.864Z,40.80
2019-05-03T17:43:34.665Z,40.90
2019-05-03T17:46:06.639Z,41.00
2019-05-03T17:48:36.758Z,41.20
2019-05-03T17:51:06.847Z,41.60
2019-05-03T17:53:56.040Z,41.70
2019-05-03T17:56:30.914Z,41.80
2019-05-03T17:59:04.613Z,42.20
2019-05-03T18:01:55.383Z,42.70
2019-05-03T18:04:46.212Z,43.00
2019-05-03T18:07:45.341Z,43.20
2019-05-03T18:10:15.916Z,43.70
2019-05-03T18:12:46.055Z,43.70
2019-05-03T18:15:16.210Z,43.50
2019-05-03T18:17:46.264Z,43.20
2019-05-03T18:20:16.380Z,43.50
2019-05-03T18:22:46.552Z,43.60
2019-05-03T18:25:16.587Z,43.80
2019-05-03T18:27:47.110Z,43.90
2019-05-03T18:30:17.308Z,44.20
2019-05-03T18:32:47.691Z,44.30
2019-05-03T18:35:17.923Z,44.40
2019-05-03T18:37:58.069Z,44.50
2019-05-03T18:40:29.876Z,44.90
2019-05-03T18:43:08.058Z,44.90
2019-05-03T18:46:06.250Z,45.20
2019-05-03T18:48:36.343Z,45.20
2019-05-03T18:51:06.390Z,45.40
2019-05-03T18:53:36.503Z,45.60
2019-05-03T18:56:06.525Z,45.70
2019-05-03T18:58:36.535Z,45.90
2019-05-03T19:01:06.874Z,46.10
2019-05-03T19:03:37.001Z,46.40
2019-05-03T19:06:08.434Z,46.60
2019-05-03T19:08:56.341Z,47.00
2019-05-03T19:12:04.826Z,47.40
2019-05-03T19:14:35.159Z,47.90
2019-05-03T19:17:24.874Z,48.50
2019-05-03T19:19:55.583Z,49.00
2019-05-03T19:22:25.763Z,49.60
2019-05-03T19:24:55.812Z,49.90
2019-05-03T19:27:25.864Z,50.00
2019-05-03T19:29:55.931Z,50.30
2019-05-03T19:32:28.309Z,49.60
2019-05-03T19:34:57.959Z,49.50
2019-05-03T19:37:28.288Z,49.50
2019-05-03T19:39:58.321Z,49.70
2019-05-03T19:42:28.410Z,49.80
2019-05-03T19:44:58.547Z,49.80
2019-05-03T19:47:28.595Z,50.00
2019-05-03T19:49:58.699Z,50.30
2019-05-03T19:52:34.364Z,51.30
2019-05-03T19:55:05.183Z,50.80
2019-05-03T19:57:38.759Z,51.00
2019-05-03T20:00:09.530Z,51.20
2019-05-03T20:02:58.591Z,51.30
2019-05-03T20:05:47.760Z,51.50
2019-05-03T20:08:28.248Z,51.70
2019-05-03T20:11:15.372Z,51.90
2019-05-03T20:13:46.588Z,52.20
2019-05-03T20:16:16.607Z,52.30
2019-05-03T20:18:46.670Z,52.40
2019-05-03T20:21:16.786Z,52.60
2019-05-03T20:23:47.158Z,52.70
2019-05-03T20:26:17.410Z,52.90
2019-05-03T20:28:47.457Z,53.10
2019-05-03T20:31:17.551Z,53.10
2019-05-03T20:33:47.656Z,53.40
2019-05-03T20:36:17.719Z,53.60
2019-05-03T20:38:47.758Z,53.70
2019-05-03T20:41:17.921Z,53.90
2019-05-03T20:43:55.802Z,53.90
2019-05-03T20:46:33.904Z,53.90
2019-05-03T20:49:06.460Z,53.90
2019-05-03T20:51:36.682Z,53.80
2019-05-03T20:54:06.759Z,53.80
2019-05-03T20:56:36.799Z,53.80
2019-05-03T20:59:06.820Z,53.90
2019-05-03T21:01:36.909Z,54.00
2019-05-03T21:04:06.959Z,54.20
2019-05-03T21:06:38.066Z,54.60
2019-05-03T21:09:08.566Z,54.70
2019-05-03T21:11:40.214Z,54.80
2019-05-03T21:14:10.226Z,55.00
2019-05-03T21:17:00.386Z,55.10
2019-05-03T21:19:40.711Z,55.10
2019-05-03T21:22:18.014Z,55.00
2019-05-03T21:25:11.997Z,55.30
2019-05-03T21:27:42.051Z,55.70
2019-05-03T21:30:12.333Z,55.90
2019-05-03T21:32:44.316Z,56.10
2019-05-03T21:35:14.816Z,56.20
2019-05-03T21:37:45.458Z,56.50
2019-05-03T21:40:15.714Z,56.70
2019-05-03T21:42:45.751Z,56.90
2019-05-03T21:45:17.464Z,57.00
2019-05-03T21:48:14.472Z,57.20
2019-05-03T21:50:44.805Z,57.30
2019-05-03T21:53:14.958Z,57.60
2019-05-03T21:55:44.995Z,57.90
2019-05-03T21:58:16.551Z,58.10
2019-05-03T22:00:55.414Z,58.10
2019-05-03T22:03:25.634Z,58.10
2019-05-03T22:05:58.016Z,58.80
2019-05-03T22:08:27.601Z,58.50
2019-05-03T22:10:57.670Z,58.60
2019-05-03T22:13:27.702Z,58.90
2019-05-03T22:16:16.746Z,59.20
2019-05-03T22:18:46.846Z,59.50
2019-05-03T22:21:27.637Z,59.70
2019-05-03T22:24:26.051Z,59.60
2019-05-03T22:27:17.100Z,59.90
2019-05-03T22:29:47.149Z,60.10
2019-05-03T22:32:17.162Z,60.30
2019-05-03T22:34:47.295Z,60.70
2019-05-03T22:37:17.344Z,61.20
2019-05-03T22:39:47.886Z,61.60
2019-05-03T22:42:18.897Z,62.20
2019-05-03T22:44:48.927Z,62.80
2019-05-03T22:47:18.970Z,63.20
2019-05-03T22:49:49.079Z,63.30
2019-05-03T22:52:19.119Z,63.60
2019-05-03T22:54:49.211Z,63.70
2019-05-03T22:57:19.316Z,63.70
2019-05-03T22:59:49.345Z,64.60
2019-05-03T23:02:19.350Z,64.20
2019-05-03T23:04:49.607Z,64.40
2019-05-03T23:07:19.657Z,64.60
2019-05-03T23:09:49.770Z,64.80
2019-05-03T23:12:19.863Z,65.10
2019-05-03T23:14:49.902Z,65.20
2019-05-03T23:17:19.914Z,65.50
2019-05-03T23:19:53.538Z,65.90
2019-05-03T23:22:26.489Z,66.10
2019-05-03T23:24:56.551Z,66.50
2019-05-03T23:27:26.602Z,66.90
2019-05-03T23:29:56.718Z,66.80
2019-05-03T23:32:26.820Z,66.70
2019-05-03T23:34:56.874Z,66.60
2019-05-03T23:37:26.998Z,66.60
2019-05-03T23:39:57.102Z,66.80
2019-05-03T23:42:27.162Z,67.10
2019-05-03T23:44:57.193Z,67.20
2019-05-03T23:47:44.853Z,67.20
2019-05-03T23:50:18.299Z,67.30
2019-05-03T23:52:48.312Z,67.60
2019-05-03T23:55:40.009Z,67.40
2019-05-03T23:58:10.019Z,67.30
